13°C Temp
11°C Dewpoint
% Humidity
Temperature
11 KM/H
7 MPH
6 KTS
210°
South South
West

Wind Speed
Mostly Scattered
Clouds
Pressure 1018.92 (hPa) - 30.09 (in)
Visibility 6.2 (mi) - 10.0 (km)

Current Conditions
EGOV
Location 9(mi)
Metar :EGOV 242050Z AUTO 21006KT 9999 SCT023/// BKN028/// 13/11 Q1019
Fri 24th May 21:50 pm

Airport
  Metar Aviation API Data Provided by https://www.checkwx.com/ PHP scripts by weather34.com ©2019